Terminal Aerodrome Forecast
Issued by NWS Boise, ID

Home | Current Version | Previous Version | Text Only | Print | Product List | Glossary On
Versions: 1 2 3 4 5 6 7 8 9 10 11 12 13 14
000
FTUS45 KBOI 250258 AAA
TAFBNO
TAF AMD
KBNO 250258Z 2503/2524 05010KT P6SM SKC
     FM250600 09005KT P6SM SKC
     FM251500 14015KT P6SM SCT080
     FM252000 15022G32KT P6SM BKN080=

USA.gov is the U.S. government's official web portal to all federal, state and local government web resources and services.